createdAt,value
2018-02-15T00:02:13.044Z,77.18
2018-02-15T00:04:40.569Z,76.50
2018-02-15T00:07:08.196Z,76.69
2018-02-15T00:09:35.734Z,77.15
2018-02-15T00:12:03.272Z,76.90
2018-02-15T00:14:30.817Z,77.17
2018-02-15T00:16:58.356Z,77.09
2018-02-15T00:19:25.886Z,76.94
2018-02-15T00:21:53.441Z,76.93
2018-02-15T00:24:20.955Z,76.64
2018-02-15T00:26:48.525Z,76.95
2018-02-15T00:29:16.061Z,77.21
2018-02-15T00:31:43.613Z,76.99
2018-02-15T00:34:11.130Z,77.07
2018-02-15T00:36:38.659Z,76.60
2018-02-15T00:39:06.200Z,76.90
2018-02-15T00:41:33.722Z,76.87
2018-02-15T00:44:01.280Z,77.08
2018-02-15T00:46:28.844Z,77.19
2018-02-15T00:48:56.397Z,76.56
2018-02-15T00:51:23.928Z,76.99
2018-02-15T00:53:51.464Z,77.23
2018-02-15T00:56:19.024Z,77.21
2018-02-15T00:58:46.555Z,76.99
2018-02-15T01:01:14.112Z,76.89
2018-02-15T01:03:41.636Z,77.19
2018-02-15T01:06:09.158Z,77.11
2018-02-15T01:08:36.679Z,77.06
2018-02-15T01:11:04.208Z,76.52
2018-02-15T01:13:32.018Z,77.03
2018-02-15T01:15:59.533Z,77.12
2018-02-15T01:18:27.056Z,77.16
2018-02-15T01:20:54.579Z,77.42
2018-02-15T01:23:22.112Z,76.77
2018-02-15T01:25:49.667Z,76.55
2018-02-15T01:28:17.203Z,77.15
2018-02-15T01:30:44.814Z,77.23
2018-02-15T01:33:12.349Z,76.70
2018-02-15T01:35:39.886Z,76.90
2018-02-15T01:38:07.413Z,76.46
2018-02-15T01:40:34.933Z,77.01
2018-02-15T01:43:02.471Z,76.80
2018-02-15T01:45:29.999Z,76.82
2018-02-15T01:47:57.522Z,76.83
2018-02-15T01:50:25.033Z,76.53
2018-02-15T01:52:52.540Z,77.19
2018-02-15T01:55:20.082Z,76.83
2018-02-15T01:57:47.593Z,77.02
2018-02-15T02:00:15.151Z,76.74
2018-02-15T02:02:42.707Z,76.93
2018-02-15T02:05:10.492Z,77.26
2018-02-15T02:07:38.009Z,76.90
2018-02-15T02:10:05.548Z,77.24
2018-02-15T02:12:33.077Z,77.09
2018-02-15T02:15:00.594Z,77.02
2018-02-15T02:17:28.113Z,76.87
2018-02-15T02:19:55.622Z,76.85
2018-02-15T02:22:23.492Z,77.22
2018-02-15T02:24:51.073Z,76.85
2018-02-15T02:27:18.592Z,77.08
2018-02-15T02:29:46.137Z,76.78
2018-02-15T02:32:13.649Z,77.21
2018-02-15T02:34:41.186Z,76.57
2018-02-15T02:37:08.752Z,77.14
2018-02-15T02:39:36.290Z,76.88
2018-02-15T02:42:03.805Z,77.03
2018-02-15T02:44:31.322Z,77.06
2018-02-15T02:46:58.843Z,77.14
2018-02-15T02:49:26.391Z,77.02
2018-02-15T02:51:53.901Z,76.93
2018-02-15T02:54:21.419Z,77.20
2018-02-15T02:56:48.938Z,76.96
2018-02-15T02:59:16.452Z,76.80
2018-02-15T03:01:44.013Z,76.77
2018-02-15T03:04:11.596Z,76.77
2018-02-15T03:06:39.115Z,77.11
2018-02-15T03:09:06.643Z,77.00
2018-02-15T03:11:34.154Z,77.09
2018-02-15T03:14:01.738Z,76.89
2018-02-15T03:16:29.307Z,77.04
2018-02-15T03:18:56.829Z,77.31
2018-02-15T03:21:24.396Z,77.07
2018-02-15T03:23:51.920Z,76.75
2018-02-15T03:26:19.491Z,77.19
2018-02-15T03:28:47.030Z,76.77
2018-02-15T03:31:14.566Z,76.02
2018-02-15T03:33:42.093Z,76.58
2018-02-15T03:36:09.706Z,76.59
2018-02-15T03:38:37.229Z,76.70
2018-02-15T03:41:04.787Z,76.60
2018-02-15T03:43:32.336Z,76.73
2018-02-15T03:45:59.867Z,76.70
2018-02-15T03:48:27.398Z,76.37
2018-02-15T03:50:54.914Z,76.67
2018-02-15T03:53:22.483Z,76.85
2018-02-15T03:55:50.028Z,77.05
2018-02-15T03:58:17.537Z,76.95
2018-02-15T04:00:45.084Z,76.91
2018-02-15T04:03:12.639Z,76.96
2018-02-15T04:05:40.247Z,77.20
2018-02-15T04:08:07.810Z,77.35
2018-02-15T04:10:35.380Z,77.40
2018-02-15T04:13:02.947Z,76.86
2018-02-15T04:15:30.473Z,77.12
2018-02-15T04:17:58.011Z,77.49
2018-02-15T04:20:25.574Z,77.41
2018-02-15T04:22:53.139Z,77.44
2018-02-15T04:25:20.689Z,77.80
2018-02-15T04:27:48.205Z,77.43
2018-02-15T04:30:15.878Z,77.73
2018-02-15T04:32:45.299Z,77.80
2018-02-15T04:35:12.946Z,77.47
2018-02-15T04:37:40.474Z,77.66
2018-02-15T04:40:09.102Z,77.63
2018-02-15T04:42:36.638Z,77.48
2018-02-15T04:45:04.675Z,76.98
2018-02-15T04:47:32.219Z,77.26
2018-02-15T04:49:59.780Z,77.26
2018-02-15T04:52:27.347Z,77.76
2018-02-15T04:54:54.930Z,77.42
2018-02-15T04:57:22.560Z,77.74
2018-02-15T04:59:50.197Z,77.52
2018-02-15T05:02:18.546Z,77.87
2018-02-15T05:04:46.062Z,78.17
2018-02-15T05:07:13.708Z,77.80
2018-02-15T05:09:41.252Z,77.88
2018-02-15T05:12:08.789Z,77.69
2018-02-15T05:14:36.314Z,77.59
2018-02-15T05:17:03.845Z,77.58
2018-02-15T05:19:31.482Z,77.66
2018-02-15T05:21:59.039Z,77.47
2018-02-15T05:24:26.570Z,77.61
2018-02-15T05:26:54.103Z,77.81
2018-02-15T05:29:21.635Z,77.90
2018-02-15T05:31:49.252Z,93.36
2018-02-15T05:34:16.796Z,74.26
2018-02-15T05:36:44.337Z,69.61
2018-02-15T05:39:11.853Z,68.13
2018-02-15T05:41:39.381Z,66.62
2018-02-15T05:44:06.926Z,66.24
2018-02-15T05:46:34.472Z,65.63
2018-02-15T05:49:02.085Z,65.89
2018-02-15T05:51:29.892Z,66.37
2018-02-15T05:53:57.412Z,66.34
2018-02-15T05:56:25.058Z,65.76
2018-02-15T05:58:52.593Z,66.28
2018-02-15T06:01:20.331Z,65.74
2018-02-15T06:03:47.862Z,65.93
2018-02-15T06:06:15.448Z,65.86
2018-02-15T06:08:42.989Z,65.43
2018-02-15T06:11:10.524Z,64.25
2018-02-15T06:13:38.101Z,63.44
2018-02-15T06:16:05.621Z,63.55
2018-02-15T06:18:33.153Z,63.73
2018-02-15T06:21:00.673Z,63.79
2018-02-15T06:23:28.217Z,64.03
2018-02-15T06:25:55.765Z,64.25
2018-02-15T06:28:23.290Z,64.05
2018-02-15T06:30:50.858Z,64.51
2018-02-15T06:33:18.419Z,64.25
2018-02-15T06:35:45.943Z,63.87
2018-02-15T06:38:13.535Z,63.16
2018-02-15T06:40:41.064Z,62.82
2018-02-15T06:43:08.622Z,62.23
2018-02-15T06:45:36.161Z,61.13
2018-02-15T06:48:03.733Z,60.69
2018-02-15T06:50:31.278Z,57.34
2018-02-15T06:52:58.965Z,53.47
2018-02-15T06:55:26.528Z,49.73
2018-02-15T06:57:54.053Z,45.98
2018-02-15T07:00:21.618Z,44.12
2018-02-15T07:02:49.133Z,41.61
2018-02-15T07:05:16.663Z,40.90
2018-02-15T07:07:44.202Z,38.36
2018-02-15T07:10:12.684Z,37.39
2018-02-15T07:12:40.232Z,36.59
2018-02-15T07:15:07.758Z,35.25
2018-02-15T07:17:36.240Z,34.88
2018-02-15T07:20:03.788Z,33.65
2018-02-15T07:22:32.068Z,32.64
2018-02-15T07:24:59.614Z,31.72
2018-02-15T07:27:27.121Z,31.25
2018-02-15T07:29:54.666Z,30.89
2018-02-15T07:32:22.198Z,30.06
2018-02-15T07:34:49.843Z,29.63
2018-02-15T07:37:18.170Z,28.75
2018-02-15T07:39:45.711Z,27.74
2018-02-15T07:42:13.228Z,27.13
2018-02-15T07:44:40.873Z,26.30
2018-02-15T07:47:08.438Z,27.95
2018-02-15T07:49:35.973Z,29.44
2018-02-15T07:52:03.609Z,31.41
2018-02-15T07:54:31.156Z,33.12
2018-02-15T07:56:58.676Z,34.35
2018-02-15T07:59:26.295Z,34.94
2018-02-15T08:01:53.860Z,36.00
2018-02-15T08:04:21.412Z,36.37
2018-02-15T08:06:48.977Z,36.51
2018-02-15T08:09:16.517Z,37.11
2018-02-15T08:11:44.039Z,37.61
2018-02-15T08:14:11.554Z,38.38
2018-02-15T08:16:39.080Z,39.03
2018-02-15T08:19:06.604Z,39.27
2018-02-15T08:21:34.155Z,39.98
2018-02-15T08:24:01.688Z,39.89
2018-02-15T08:26:29.506Z,40.23
2018-02-15T08:28:57.084Z,40.22
2018-02-15T08:31:24.747Z,41.06
2018-02-15T08:33:52.280Z,41.52
2018-02-15T08:36:19.812Z,42.14
2018-02-15T08:38:47.349Z,42.57
2018-02-15T08:41:14.879Z,42.56
2018-02-15T08:43:42.421Z,43.20
2018-02-15T08:46:09.929Z,43.11
2018-02-15T08:48:37.471Z,44.01
2018-02-15T08:51:05.012Z,43.33
2018-02-15T08:53:32.564Z,43.58
2018-02-15T08:56:00.144Z,43.40
2018-02-15T08:58:27.705Z,43.49
2018-02-15T09:00:55.264Z,43.03
2018-02-15T09:03:22.787Z,42.73
2018-02-15T09:05:50.298Z,43.08
2018-02-15T09:08:17.820Z,42.54
2018-02-15T09:10:45.339Z,42.28
2018-02-15T09:13:12.878Z,41.63
2018-02-15T09:15:40.426Z,41.09
2018-02-15T09:18:07.938Z,39.11
2018-02-15T09:20:35.471Z,37.29
2018-02-15T09:23:02.991Z,35.71
2018-02-15T09:25:30.539Z,35.51
2018-02-15T09:27:58.082Z,35.37
2018-02-15T09:30:25.696Z,35.53
2018-02-15T09:32:53.212Z,36.72
2018-02-15T09:35:20.736Z,37.38
2018-02-15T09:37:48.308Z,38.83
2018-02-15T09:40:15.847Z,40.04
2018-02-15T09:42:43.372Z,40.83
2018-02-15T09:45:10.897Z,41.52
2018-02-15T09:47:38.424Z,42.00
2018-02-15T09:50:05.990Z,42.53
2018-02-15T09:52:33.511Z,42.64
2018-02-15T09:55:01.036Z,43.19
2018-02-15T09:57:28.558Z,44.10
2018-02-15T09:59:56.082Z,43.91
2018-02-15T10:02:23.632Z,43.53
2018-02-15T10:04:51.140Z,44.22
2018-02-15T10:07:18.662Z,44.26
2018-02-15T10:09:46.166Z,44.44
2018-02-15T10:12:13.681Z,44.71
2018-02-15T10:14:41.242Z,44.94
2018-02-15T10:17:08.764Z,44.41
2018-02-15T10:19:36.324Z,44.39
2018-02-15T10:22:03.876Z,44.34
2018-02-15T10:24:31.395Z,44.51
2018-02-15T10:26:58.943Z,43.05
2018-02-15T10:29:26.458Z,42.65
2018-02-15T10:31:54.007Z,42.08
2018-02-15T10:34:21.530Z,41.55
2018-02-15T10:36:49.038Z,40.85
2018-02-15T10:39:16.559Z,40.80
2018-02-15T10:41:44.075Z,41.08
2018-02-15T10:44:11.634Z,41.18
2018-02-15T10:46:39.183Z,41.26
2018-02-15T10:49:06.727Z,40.90
2018-02-15T10:51:34.263Z,41.24
2018-02-15T10:54:01.783Z,41.83
2018-02-15T10:56:29.313Z,41.92
2018-02-15T10:58:56.840Z,41.83
2018-02-15T11:01:29.891Z,40.81
2018-02-15T11:04:02.897Z,40.70
2018-02-15T11:06:30.472Z,40.23
2018-02-15T11:08:58.013Z,39.80
2018-02-15T11:11:25.552Z,39.13
2018-02-15T11:13:53.096Z,37.77
2018-02-15T11:16:20.610Z,37.53
2018-02-15T11:18:48.165Z,36.82
2018-02-15T11:21:15.692Z,36.40
2018-02-15T11:23:43.204Z,35.88
2018-02-15T11:26:10.752Z,36.24
2018-02-15T11:28:38.292Z,36.55
2018-02-15T11:31:05.855Z,36.37
2018-02-15T11:33:33.391Z,36.65
2018-02-15T11:36:00.920Z,37.32
2018-02-15T11:38:28.488Z,37.34
2018-02-15T11:40:56.245Z,37.30
2018-02-15T11:43:23.797Z,36.92
2018-02-15T11:45:51.328Z,36.51
2018-02-15T11:48:18.842Z,35.75
2018-02-15T11:50:46.401Z,35.10
2018-02-15T11:53:14.141Z,34.62
2018-02-15T11:55:41.667Z,33.66
2018-02-15T11:58:10.029Z,33.70
2018-02-15T12:00:37.569Z,33.52
2018-02-15T12:03:05.082Z,33.96
2018-02-15T12:05:32.607Z,34.06
2018-02-15T12:08:00.138Z,34.65
2018-02-15T12:10:27.668Z,35.01
2018-02-15T12:12:55.233Z,35.22
2018-02-15T12:15:22.753Z,34.95
2018-02-15T12:17:50.342Z,34.68
2018-02-15T12:20:17.886Z,34.53
2018-02-15T12:22:45.431Z,34.06
2018-02-15T12:25:12.984Z,34.01
2018-02-15T12:27:40.503Z,34.04
2018-02-15T12:30:08.045Z,33.73
2018-02-15T12:32:35.578Z,33.80
2018-02-15T12:35:03.101Z,33.61
2018-02-15T12:37:30.637Z,34.00
2018-02-15T12:39:58.168Z,34.56
2018-02-15T12:42:25.716Z,34.98
2018-02-15T12:44:53.385Z,35.20
2018-02-15T12:47:20.971Z,35.45
2018-02-15T12:49:48.737Z,35.82
2018-02-15T12:52:16.601Z,35.87
2018-02-15T12:54:44.130Z,36.22
2018-02-15T12:57:11.667Z,36.45
2018-02-15T12:59:39.220Z,36.89
2018-02-15T13:02:06.882Z,37.64
2018-02-15T13:04:34.398Z,37.41
2018-02-15T13:07:01.950Z,37.58
2018-02-15T13:09:29.501Z,37.50
2018-02-15T13:11:57.051Z,37.27
2018-02-15T13:14:24.866Z,37.80
2018-02-15T13:16:56.027Z,37.59
2018-02-15T13:22:36.350Z,37.68
2018-02-15T13:25:03.896Z,37.79
2018-02-15T13:27:43.788Z,38.09
2018-02-15T13:30:11.355Z,37.82
2018-02-15T13:32:38.901Z,37.84
2018-02-15T13:35:06.438Z,37.54
2018-02-15T13:37:34.004Z,37.81
2018-02-15T13:40:01.517Z,37.79
2018-02-15T13:42:29.044Z,38.29
2018-02-15T13:44:56.616Z,38.30
2018-02-15T13:47:24.149Z,38.75
2018-02-15T13:49:51.680Z,38.39
2018-02-15T13:52:19.254Z,38.38
2018-02-15T13:54:46.788Z,38.48
2018-02-15T13:57:14.322Z,39.13
2018-02-15T13:59:41.861Z,39.68
2018-02-15T14:02:09.404Z,39.86
2018-02-15T14:04:36.927Z,40.09
2018-02-15T14:07:04.443Z,40.03
2018-02-15T14:09:31.982Z,40.08
2018-02-15T14:11:59.511Z,40.58
2018-02-15T14:14:27.398Z,40.35
2018-02-15T14:16:55.024Z,40.43
2018-02-15T14:19:22.563Z,40.84
2018-02-15T14:21:50.694Z,41.38
2018-02-15T14:24:18.251Z,41.92
2018-02-15T14:26:46.034Z,41.96
2018-02-15T14:29:13.563Z,42.55
2018-02-15T14:31:41.116Z,43.06
2018-02-15T14:34:08.676Z,44.93
2018-02-15T14:36:36.232Z,44.07
2018-02-15T14:39:03.802Z,44.81
2018-02-15T14:41:31.337Z,44.30
2018-02-15T14:43:58.888Z,44.91
2018-02-15T14:46:26.443Z,44.75
2018-02-15T14:48:53.972Z,45.23
2018-02-15T14:51:21.486Z,45.43
2018-02-15T14:53:49.360Z,46.28
2018-02-15T14:56:17.711Z,46.71
2018-02-15T14:58:45.278Z,46.16
2018-02-15T15:01:12.806Z,46.67
2018-02-15T15:03:40.321Z,46.90
2018-02-15T15:06:07.838Z,47.92
2018-02-15T15:08:35.387Z,47.81
2018-02-15T15:11:02.915Z,48.12
2018-02-15T15:13:30.439Z,48.25
2018-02-15T15:15:57.969Z,48.22
2018-02-15T15:18:25.468Z,48.43
2018-02-15T15:20:53.005Z,75.05
2018-02-15T15:23:20.542Z,59.93
2018-02-15T15:25:48.177Z,54.13
2018-02-15T15:28:15.705Z,77.53
2018-02-15T15:30:43.274Z,71.72
2018-02-15T15:33:10.841Z,70.80
2018-02-15T15:35:38.424Z,69.78
2018-02-15T15:38:05.978Z,69.04
2018-02-15T15:40:36.957Z,69.07
2018-02-15T15:43:04.478Z,70.00
2018-02-15T15:46:23.860Z,69.10
2018-02-15T15:48:51.387Z,68.89
2018-02-15T15:51:19.732Z,66.32
2018-02-15T15:53:47.315Z,69.73
2018-02-15T15:56:14.851Z,69.77
2018-02-15T15:58:42.389Z,70.44
2018-02-15T16:01:09.981Z,70.88
2018-02-15T16:03:37.520Z,70.66
2018-02-15T16:06:05.041Z,70.95
2018-02-15T16:08:32.581Z,70.95
2018-02-15T16:11:00.389Z,71.52
2018-02-15T16:13:27.920Z,71.81
2018-02-15T16:15:55.490Z,70.24
2018-02-15T16:18:23.024Z,70.43
2018-02-15T16:20:50.542Z,70.63
2018-02-15T16:23:18.082Z,71.87
2018-02-15T16:25:45.597Z,71.10
2018-02-15T16:28:13.115Z,72.12
2018-02-15T16:30:40.678Z,71.57
2018-02-15T16:33:08.220Z,71.70
2018-02-15T16:35:35.955Z,71.63
2018-02-15T16:38:03.487Z,72.41
2018-02-15T16:40:31.838Z,72.24
2018-02-15T16:42:59.391Z,72.04
2018-02-15T16:45:26.936Z,71.59
2018-02-15T16:47:54.506Z,71.74
2018-02-15T16:50:22.044Z,72.06
2018-02-15T16:52:49.594Z,71.73
2018-02-15T16:55:17.121Z,72.50
2018-02-15T16:57:44.746Z,72.48
2018-02-15T17:00:12.479Z,73.33
2018-02-15T17:02:39.993Z,72.42
2018-02-15T17:05:07.528Z,72.66
2018-02-15T17:07:35.104Z,72.38
2018-02-15T17:10:02.626Z,72.83
2018-02-15T17:12:30.152Z,71.79
2018-02-15T17:14:57.720Z,72.95
2018-02-15T17:17:25.242Z,73.18
2018-02-15T17:19:52.767Z,73.34
2018-02-15T17:22:20.345Z,73.42
2018-02-15T17:24:48.118Z,72.61
2018-02-15T17:27:15.772Z,72.75
2018-02-15T17:29:43.439Z,72.23
2018-02-15T17:32:11.010Z,72.99
2018-02-15T17:34:38.562Z,73.87
2018-02-15T17:37:06.093Z,73.16
2018-02-15T17:39:33.643Z,73.54
2018-02-15T17:42:01.179Z,73.15
2018-02-15T17:44:28.698Z,73.43
2018-02-15T17:46:56.256Z,80.02
2018-02-15T17:49:23.794Z,78.37
2018-02-15T17:51:51.550Z,76.31
2018-02-15T17:54:19.115Z,75.39
2018-02-15T17:56:46.707Z,75.40
2018-02-15T17:59:15.011Z,74.98
2018-02-15T18:01:42.593Z,74.46
2018-02-15T18:04:10.167Z,74.25
2018-02-15T18:06:37.711Z,74.66
2018-02-15T18:09:05.271Z,74.69
2018-02-15T18:11:32.803Z,73.98
2018-02-15T18:14:00.486Z,73.98
2018-02-15T18:16:28.114Z,74.00
2018-02-15T18:18:55.655Z,73.39
2018-02-15T18:21:23.768Z,74.11
2018-02-15T18:23:51.524Z,74.06
2018-02-15T18:26:19.068Z,74.01
2018-02-15T18:28:46.634Z,73.70
2018-02-15T18:31:14.179Z,73.31
2018-02-15T18:33:41.744Z,73.89
2018-02-15T18:36:09.282Z,73.34
2018-02-15T18:38:36.849Z,73.83
2018-02-15T18:41:04.410Z,73.96
2018-02-15T18:43:31.940Z,73.27
2018-02-15T18:45:59.504Z,72.72
2018-02-15T18:48:27.044Z,73.04
2018-02-15T18:50:54.592Z,73.57
2018-02-15T18:53:22.375Z,73.35
2018-02-15T18:55:49.915Z,72.68
2018-02-15T18:58:18.514Z,73.83
2018-02-15T19:00:46.206Z,72.75
2018-02-15T19:03:13.753Z,73.26
2018-02-15T19:05:41.527Z,73.18
2018-02-15T19:08:09.073Z,73.67
2018-02-15T19:10:36.612Z,73.37
2018-02-15T19:13:04.268Z,72.52
2018-02-15T19:15:32.065Z,73.62
2018-02-15T19:17:59.632Z,73.18
2018-02-15T19:20:27.238Z,73.73
2018-02-15T19:22:54.898Z,73.09
2018-02-15T19:25:22.451Z,73.41
2018-02-15T19:27:49.988Z,73.17
2018-02-15T19:30:17.541Z,73.68
2018-02-15T19:32:45.120Z,73.15
2018-02-15T19:35:13.843Z,73.05
2018-02-15T19:37:41.591Z,72.46
2018-02-15T19:40:09.114Z,73.14
2018-02-15T19:42:36.643Z,73.84
2018-02-15T19:45:04.209Z,73.32
2018-02-15T19:47:32.027Z,73.56
2018-02-15T19:49:59.549Z,73.64
2018-02-15T19:52:27.250Z,73.38
2018-02-15T19:54:55.068Z,73.42
2018-02-15T19:57:22.612Z,72.95
2018-02-15T19:59:50.285Z,73.53
2018-02-15T20:02:17.908Z,73.86
2018-02-15T20:04:45.467Z,73.82
2018-02-15T20:07:13.244Z,73.99
2018-02-15T20:09:40.808Z,73.82
2018-02-15T20:12:08.360Z,73.07
2018-02-15T20:14:36.044Z,73.19
2018-02-15T20:17:03.820Z,73.56
2018-02-15T20:19:31.541Z,73.80
2018-02-15T20:21:59.090Z,73.64
2018-02-15T20:24:26.655Z,73.36
2018-02-15T20:26:59.706Z,73.59
2018-02-15T20:29:27.521Z,73.59
2018-02-15T20:31:55.262Z,74.06
2018-02-15T20:34:23.206Z,73.88
2018-02-15T20:36:50.909Z,73.44
2018-02-15T20:39:24.087Z,73.59
2018-02-15T20:41:51.629Z,73.31
2018-02-15T20:44:19.200Z,73.83
2018-02-15T20:46:47.756Z,73.02
2018-02-15T20:49:20.805Z,73.67
2018-02-15T20:51:54.013Z,73.81
2018-02-15T20:54:27.063Z,73.49
2018-02-15T20:56:54.633Z,73.91
2018-02-15T20:59:22.707Z,73.30
2018-02-15T21:01:50.335Z,73.64
2018-02-15T21:04:17.879Z,73.71
2018-02-15T21:06:45.506Z,73.86
2018-02-15T21:09:13.346Z,73.69
2018-02-15T21:11:40.945Z,73.98
2018-02-15T21:14:08.504Z,73.64
2018-02-15T21:16:36.057Z,73.54
2018-02-15T21:19:03.707Z,73.65
2018-02-15T21:21:31.234Z,73.16
2018-02-15T21:23:58.775Z,73.79
2018-02-15T21:26:26.364Z,73.68
2018-02-15T21:28:53.934Z,73.85
2018-02-15T21:31:22.288Z,73.30
2018-02-15T21:33:49.843Z,73.46
2018-02-15T21:36:17.453Z,73.68
2018-02-15T21:38:45.042Z,73.85
2018-02-15T21:41:12.617Z,73.92
2018-02-15T21:43:40.151Z,74.03
2018-02-15T21:46:07.727Z,73.61
2018-02-15T21:48:35.258Z,74.15
2018-02-15T21:51:02.892Z,73.93
2018-02-15T21:53:30.645Z,73.92
2018-02-15T21:55:58.184Z,73.90
2018-02-15T21:58:25.710Z,73.93
2018-02-15T22:00:53.271Z,73.78
2018-02-15T22:03:20.796Z,73.99
2018-02-15T22:05:48.302Z,73.96
2018-02-15T22:08:15.852Z,73.43
2018-02-15T22:10:43.365Z,74.03
2018-02-15T22:13:10.915Z,74.04
2018-02-15T22:15:39.214Z,73.81
2018-02-15T22:18:06.724Z,74.04
2018-02-15T22:20:34.250Z,73.76
2018-02-15T22:23:01.786Z,73.98
2018-02-15T22:25:29.297Z,74.02
2018-02-15T22:27:56.826Z,74.30
2018-02-15T22:30:24.392Z,73.76
2018-02-15T22:32:51.917Z,72.99
2018-02-15T22:35:19.500Z,73.69
2018-02-15T22:37:47.036Z,73.99
2018-02-15T22:40:14.569Z,73.79
2018-02-15T22:42:42.089Z,73.94
2018-02-15T22:45:09.639Z,73.77
2018-02-15T22:47:37.169Z,73.50
2018-02-15T22:50:04.721Z,73.68
2018-02-15T22:52:32.270Z,73.82
2018-02-15T22:55:00.002Z,73.83
2018-02-15T22:57:27.536Z,73.81
2018-02-15T22:59:55.117Z,74.23
2018-02-15T23:02:22.661Z,73.87
2018-02-15T23:04:50.205Z,74.08
2018-02-15T23:07:17.759Z,73.81
2018-02-15T23:12:21.844Z,73.54
2018-02-15T23:14:49.380Z,73.75
2018-02-15T23:17:16.961Z,74.29
2018-02-15T23:19:44.495Z,73.49
2018-02-15T23:22:12.033Z,74.16
2018-02-15T23:24:39.559Z,73.46
2018-02-15T23:27:07.187Z,73.82
2018-02-15T23:29:34.753Z,73.87
2018-02-15T23:32:02.364Z,73.36
2018-02-15T23:34:29.945Z,73.48
2018-02-15T23:36:57.476Z,73.96
2018-02-15T23:39:25.016Z,74.16
2018-02-15T23:41:52.566Z,73.99
2018-02-15T23:44:20.102Z,72.98
2018-02-15T23:46:47.658Z,73.76
2018-02-15T23:49:15.197Z,73.81
2018-02-15T23:51:42.728Z,73.99
2018-02-15T23:54:10.279Z,73.92
2018-02-15T23:56:37.807Z,73.69
2018-02-15T23:59:05.334Z,74.13
